Time;durP1;ratioP1;P1;durP2;ratioP2;P2;SDS_P1;SDS_P2;PMS_P1;PMS_P2;Temp;Humidity;BMP_temperature;BMP_pressure;BME280_temperature;BME280_humidity;BME280_pressure;Samples;Min_cycle;Max_cycle;Signal;HPM_P1;HPM_P2
2023/11/06 00:01:49;;;;;;;2.92;1.90;;;;;;;12.32;100.00;96732.09;5071862;28;20028;-76
2023/11/06 00:04:14;;;;;;;2.38;1.98;;;;;;;12.29;100.00;96730.53;5072067;28;20024;-76
2023/11/06 00:06:40;;;;;;;2.97;2.00;;;;;;;12.29;100.00;96725.16;5055320;28;20031;-75
2023/11/06 00:09:05;;;;;;;3.67;1.90;;;;;;;12.27;100.00;96731.63;5092760;28;20100;-76
2023/11/06 00:11:31;;;;;;;2.55;1.90;;;;;;;12.29;100.00;96735.88;5093173;28;20020;-76
2023/11/06 00:13:57;;;;;;;2.70;1.88;;;;;;;12.23;100.00;96722.13;5091622;28;20035;-76
2023/11/06 00:16:22;;;;;;;2.20;1.75;;;;;;;12.18;100.00;96727.03;5091925;28;20093;-75
2023/11/06 00:18:48;;;;;;;3.05;1.92;;;;;;;12.15;100.00;96729.94;5074547;28;20107;-76
2023/11/06 00:21:14;;;;;;;2.72;2.10;;;;;;;12.06;100.00;96731.53;5074997;28;20031;-75
2023/11/06 00:23:39;;;;;;;3.28;2.35;;;;;;;12.09;100.00;96758.09;5074900;28;20016;-75
2023/11/06 00:26:06;;;;;;;3.33;2.00;;;;;;;11.98;100.00;96750.06;5078052;28;20511;-76
2023/11/06 00:28:32;;;;;;;4.00;1.92;;;;;;;11.99;100.00;96756.28;5071306;28;20028;-76
2023/11/06 00:30:57;;;;;;;3.08;2.35;;;;;;;11.98;100.00;96760.78;5074131;28;20178;-76
2023/11/06 00:33:23;;;;;;;3.35;2.42;;;;;;;11.92;100.00;96739.84;5071579;28;20017;-76
2023/11/06 00:35:50;;;;;;;3.15;2.30;;;;;;;11.93;100.00;96758.47;5071370;28;20054;-75
2023/11/06 00:38:15;;;;;;;3.28;2.15;;;;;;;11.96;100.00;96768.09;5091545;28;20028;-76
2023/11/06 00:40:42;;;;;;;3.10;2.47;;;;;;;11.90;100.00;96757.88;5091478;28;20035;-76
2023/11/06 00:43:08;;;;;;;3.63;2.08;;;;;;;11.91;100.00;96771.13;5055405;28;20407;-75
2023/11/06 00:45:34;;;;;;;3.53;2.40;;;;;;;11.98;100.00;96779.53;5079654;28;20032;-76
2023/11/06 00:48:01;;;;;;;3.00;2.33;;;;;;;11.96;100.00;96776.16;5070979;28;20518;-76
2023/11/06 00:50:26;;;;;;;3.90;2.40;;;;;;;11.95;100.00;96774.44;5086905;28;20024;-76
2023/11/06 00:52:56;;;;;;;3.90;2.47;;;;;;;11.93;100.00;96782.56;5063369;28;20495;-76
2023/11/06 00:55:22;;;;;;;3.75;2.90;;;;;;;11.94;100.00;96786.13;5086182;28;20035;-75
2023/11/06 00:57:49;;;;;;;3.00;2.10;;;;;;;11.93;100.00;96784.44;5075221;28;20021;-76
2023/11/06 01:00:16;;;;;;;5.80;2.50;;;;;;;11.95;100.00;96780.66;5065455;28;20020;-76
2023/11/06 01:02:42;;;;;;;4.22;2.20;;;;;;;11.91;100.00;96786.34;5073348;28;20032;-76
2023/11/06 01:05:08;;;;;;;2.78;2.40;;;;;;;11.87;100.00;96772.34;5081917;28;20565;-76
2023/11/06 01:07:33;;;;;;;2.45;2.00;;;;;;;11.88;100.00;96781.25;5082196;28;20024;-76
2023/11/06 01:09:59;;;;;;;2.58;2.03;;;;;;;11.81;100.00;96777.38;5090716;28;20016;-76
2023/11/06 01:12:25;;;;;;;1.80;1.70;;;;;;;11.80;100.00;96784.53;5090702;28;20028;-76
2023/11/06 01:14:51;;;;;;;3.38;2.33;;;;;;;11.65;100.00;96779.50;5090861;28;20048;-76
2023/11/06 01:17:17;;;;;;;3.42;2.33;;;;;;;11.73;100.00;96803.88;5090749;28;20456;-77
2023/11/06 01:19:42;;;;;;;3.20;2.67;;;;;;;11.76;100.00;96798.28;5076517;28;20054;-75
2023/11/06 01:22:08;;;;;;;2.95;2.40;;;;;;;11.80;100.00;96789.06;5090455;28;20118;-76
2023/11/06 01:24:34;;;;;;;3.05;2.67;;;;;;;11.83;100.00;96797.69;5091941;28;20104;-75
2023/11/06 01:26:59;;;;;;;3.38;2.88;;;;;;;11.70;100.00;96793.41;5082092;28;20028;-75
2023/11/06 01:29:25;;;;;;;2.92;2.42;;;;;;;11.78;100.00;96802.56;5061903;28;20060;-77
2023/11/06 01:31:50;;;;;;;3.70;2.60;;;;;;;11.79;100.00;96803.41;5071286;28;20024;-76
2023/11/06 01:34:16;;;;;;;4.32;2.80;;;;;;;11.72;100.00;96805.72;5090262;28;20062;-76
2023/11/06 01:36:43;;;;;;;3.88;2.70;;;;;;;11.68;100.00;96798.03;5087768;28;20028;-76
2023/11/06 01:39:10;;;;;;;5.05;2.65;;;;;;;11.60;100.00;96789.72;5070046;28;20028;-75
2023/11/06 01:41:37;;;;;;;2.80;2.50;;;;;;;11.54;100.00;96793.72;5069542;28;20028;-77
2023/11/06 01:44:03;;;;;;;3.08;2.50;;;;;;;11.52;100.00;96797.50;5072433;28;20032;-76
2023/11/06 01:46:28;;;;;;;4.97;2.53;;;;;;;11.55;100.00;96807.97;5071410;28;20396;-76
2023/11/06 01:48:54;;;;;;;3.10;2.47;;;;;;;11.52;100.00;96794.81;5069791;28;20032;-77
2023/11/06 01:51:20;;;;;;;3.13;2.50;;;;;;;11.54;100.00;96800.91;5066178;28;20050;-76
2023/11/06 01:53:47;;;;;;;2.90;2.53;;;;;;;11.34;100.00;96797.97;5073252;28;20040;-76
2023/11/06 01:56:13;;;;;;;3.72;2.83;;;;;;;11.37;100.00;96789.69;5089909;28;20059;-76
2023/11/06 01:58:39;;;;;;;2.90;2.60;;;;;;;11.44;100.00;96803.47;5081465;28;20020;-76
2023/11/06 02:01:05;;;;;;;2.70;2.42;;;;;;;11.32;100.00;96797.22;5081386;28;20410;-76
2023/11/06 02:03:33;;;;;;;5.00;2.85;;;;;;;11.33;100.00;96803.44;5089637;28;20056;-75
2023/11/06 02:05:59;;;;;;;4.20;3.10;;;;;;;11.48;100.00;96798.69;5089870;28;20028;-75
2023/11/06 02:08:25;;;;;;;4.20;3.33;;;;;;;11.33;100.00;96792.72;5082679;28;20088;-75
2023/11/06 02:10:51;;;;;;;3.20;2.80;;;;;;;11.32;100.00;96805.25;5081505;28;20119;-75
2023/11/06 02:13:17;;;;;;;3.78;3.03;;;;;;;11.29;100.00;96808.16;5068852;28;20103;-75
2023/11/06 02:15:43;;;;;;;4.20;3.33;;;;;;;11.28;100.00;96816.31;5072719;28;20031;-75
2023/11/06 02:18:08;;;;;;;3.95;3.33;;;;;;;11.19;100.00;96798.28;5072723;28;20032;-75
2023/11/06 02:20:36;;;;;;;3.95;3.10;;;;;;;11.16;100.00;96818.13;5079954;28;20400;-76
2023/11/06 02:23:03;;;;;;;7.18;3.58;;;;;;;11.19;100.00;96828.59;5061144;28;20035;-76
2023/11/06 02:25:29;;;;;;;6.13;3.58;;;;;;;11.15;100.00;96834.28;5069284;28;20058;-76
2023/11/06 02:27:55;;;;;;;5.15;3.78;;;;;;;11.12;100.00;96850.56;5073653;28;20509;-76
2023/11/06 02:30:21;;;;;;;5.95;4.20;;;;;;;11.11;100.00;96848.84;5069110;28;20097;-76
2023/11/06 02:32:47;;;;;;;6.68;4.32;;;;;;;11.10;100.00;96852.50;5072187;28;20096;-76
2023/11/06 02:35:12;;;;;;;6.40;4.80;;;;;;;11.07;100.00;96858.97;5089481;28;20070;-76
2023/11/06 02:37:38;;;;;;;10.63;5.28;;;;;;;10.97;100.00;96855.25;5089232;28;20027;-74
2023/11/06 02:40:06;;;;;;;10.55;6.63;;;;;;;10.83;100.00;96855.41;5089240;28;20369;-76
2023/11/06 02:42:36;;;;;;;18.13;8.23;;;;;;;10.88;100.00;96859.47;5088580;28;20380;-76
2023/11/06 02:45:04;;;;;;;16.58;8.85;;;;;;;10.81;100.00;96852.84;5082959;28;20043;-76
2023/11/06 02:47:30;;;;;;;12.82;6.30;;;;;;;10.86;100.00;96845.34;5069118;28;20059;-76
2023/11/06 02:49:55;;;;;;;9.18;5.85;;;;;;;10.87;100.00;96847.06;5069284;28;20036;-75
2023/11/06 02:52:21;;;;;;;7.07;4.63;;;;;;;10.89;100.00;96862.97;5080143;28;20016;-76
2023/11/06 02:54:46;;;;;;;6.05;4.00;;;;;;;10.84;100.00;96854.44;5071250;28;20420;-76
2023/11/06 02:57:12;;;;;;;8.90;5.28;;;;;;;10.82;100.00;96851.91;5070722;28;20036;-76
2023/11/06 02:59:38;;;;;;;10.95;6.15;;;;;;;10.78;100.00;96857.56;5088089;28;20024;-75
2023/11/06 03:02:04;;;;;;;11.38;5.40;;;;;;;10.86;100.00;96863.19;5073287;28;20028;-76
2023/11/06 03:04:31;;;;;;;10.30;6.35;;;;;;;10.78;100.00;96884.31;5072727;28;20029;-75
2023/11/06 03:06:57;;;;;;;8.40;5.47;;;;;;;10.73;100.00;96892.69;5068824;28;20056;-75
2023/11/06 03:09:23;;;;;;;8.15;5.38;;;;;;;10.66;100.00;96898.59;5085599;28;20408;-75
2023/11/06 03:11:48;;;;;;;8.07;4.78;;;;;;;10.63;100.00;96897.00;5087588;28;20031;-76
2023/11/06 03:14:14;;;;;;;9.23;6.47;;;;;;;10.58;100.00;96904.50;5054080;28;20078;-75
2023/11/06 03:16:39;;;;;;;14.55;5.72;;;;;;;10.56;100.00;96902.91;5073907;28;20020;-76
2023/11/06 03:19:05;;;;;;;8.35;5.35;;;;;;;10.48;100.00;96890.09;5087239;28;20574;-76
2023/11/06 03:21:31;;;;;;;8.00;4.82;;;;;;;10.55;100.00;96882.50;5065936;28;20472;-76
2023/11/06 03:23:57;;;;;;;7.40;5.15;;;;;;;10.51;100.00;96881.00;5068563;28;20051;-76
2023/11/06 03:26:23;;;;;;;8.75;5.07;;;;;;;10.49;100.00;96890.94;5082010;28;20028;-76
2023/11/06 03:28:48;;;;;;;12.82;6.00;;;;;;;10.47;100.00;96876.81;5071919;28;20566;-76
2023/11/06 03:31:14;;;;;;;13.48;7.88;;;;;;;10.43;100.00;96878.03;5080986;28;20024;-76
2023/11/06 03:33:40;;;;;;;21.25;7.00;;;;;;;10.43;100.00;96884.19;5055891;28;20024;-75
2023/11/06 03:36:06;;;;;;;116.97;9.02;;;;;;;10.39;100.00;96887.22;5055548;28;20039;-75
2023/11/06 03:38:32;;;;;;;25.75;9.77;;;;;;;10.43;100.00;96915.47;5079419;28;20503;-76
2023/11/06 03:40:57;;;;;;;22.23;7.32;;;;;;;10.39;100.00;96893.44;5075867;28;20060;-76
2023/11/06 03:43:23;;;;;;;62.45;15.77;;;;;;;10.40;100.00;96899.63;5090860;28;20510;-76
2023/11/06 03:45:49;;;;;;;40.83;7.25;;;;;;;10.41;100.00;96899.50;5092510;28;20399;-76
2023/11/06 03:48:14;;;;;;;52.63;7.07;;;;;;;10.33;100.00;96910.78;5092163;28;20016;-76
2023/11/06 03:50:43;;;;;;;26.80;6.65;;;;;;;10.26;100.00;96914.84;5088594;28;20020;-76
2023/11/06 03:53:13;;;;;;;23.42;7.82;;;;;;;10.34;100.00;96927.63;5086020;28;20111;-76
2023/11/06 03:55:39;;;;;;;19.15;7.90;;;;;;;10.28;100.00;96918.25;5070203;28;20035;-76
2023/11/06 03:58:05;;;;;;;32.25;8.50;;;;;;;10.33;100.00;96939.31;5092067;28;20024;-76
2023/11/06 04:00:31;;;;;;;18.73;7.97;;;;;;;10.32;100.00;96941.13;5092450;28;20067;-76
2023/11/06 04:02:56;;;;;;;37.47;8.27;;;;;;;10.22;100.00;96961.44;5082038;28;20016;-75
2023/11/06 04:05:22;;;;;;;43.30;22.33;;;;;;;10.15;100.00;96944.09;5074992;28;20159;-76
2023/11/06 04:07:47;;;;;;;24.17;8.52;;;;;;;10.12;100.00;96943.47;5074986;28;20456;-76
2023/11/06 04:10:15;;;;;;;17.70;8.27;;;;;;;10.13;100.00;96955.84;5071665;28;20020;-76
2023/11/06 04:12:40;;;;;;;14.95;7.35;;;;;;;10.08;100.00;96950.84;5072967;28;20023;-77
2023/11/06 04:15:09;;;;;;;16.88;8.25;;;;;;;10.08;100.00;96958.00;5083631;28;20020;-76
2023/11/06 04:17:35;;;;;;;15.02;8.07;;;;;;;10.14;100.00;96974.50;5079738;28;20027;-75
2023/11/06 04:20:01;;;;;;;29.52;10.20;;;;;;;10.04;100.00;96961.81;5054519;28;20049;-76
2023/11/06 04:22:26;;;;;;;23.60;10.05;;;;;;;9.99;100.00;96963.97;5084070;28;20024;-76
2023/11/06 04:24:52;;;;;;;19.65;8.93;;;;;;;9.88;100.00;96956.69;5074983;28;20047;-76
2023/11/06 04:27:18;;;;;;;16.17;8.55;;;;;;;9.84;100.00;96965.88;5092799;28;20027;-76
2023/11/06 04:29:43;;;;;;;16.23;8.23;;;;;;;9.85;100.00;96967.56;5068969;28;20035;-76
2023/11/06 04:32:09;;;;;;;15.15;8.32;;;;;;;9.92;100.00;96994.72;5071267;28;20502;-76
2023/11/06 04:34:34;;;;;;;14.93;8.13;;;;;;;9.91;100.00;97001.03;5054369;28;20036;-77
2023/11/06 04:37:00;;;;;;;10.55;6.90;;;;;;;9.78;100.00;96988.50;5054808;28;20385;-72
2023/11/06 04:39:26;;;;;;;11.90;7.38;;;;;;;9.72;100.00;96982.75;5080922;28;20373;-74
2023/11/06 04:41:51;;;;;;;15.07;7.43;;;;;;;9.79;100.00;96998.22;5078091;28;20036;-76
2023/11/06 04:44:17;;;;;;;15.88;8.10;;;;;;;9.82;100.00;97006.03;5090311;28;20260;-76
2023/11/06 04:46:42;;;;;;;14.50;8.00;;;;;;;9.80;100.00;97001.75;5076329;28;20036;-76
2023/11/06 04:49:08;;;;;;;14.38;7.55;;;;;;;9.84;100.00;97003.28;5053692;28;20036;-75
2023/11/06 04:51:33;;;;;;;12.35;7.35;;;;;;;9.91;100.00;97009.91;5072325;28;20043;-75
2023/11/06 04:53:59;;;;;;;14.52;6.38;;;;;;;10.00;100.00;97008.41;5079707;28;20024;-75
2023/11/06 04:56:25;;;;;;;15.68;7.65;;;;;;;10.08;100.00;97014.97;5092145;28;20042;-75
2023/11/06 04:58:50;;;;;;;13.70;6.32;;;;;;;10.09;100.00;97013.97;5090619;28;20089;-74
2023/11/06 05:01:18;;;;;;;13.82;7.13;;;;;;;10.24;100.00;97010.28;5080184;28;20020;-75
2023/11/06 05:03:44;;;;;;;14.90;6.20;;;;;;;10.35;100.00;97020.25;5054041;28;20029;-75
2023/11/06 05:06:10;;;;;;;17.48;8.13;;;;;;;10.47;100.00;97031.91;5070366;28;20463;-76
2023/11/06 05:08:36;;;;;;;16.55;5.07;;;;;;;10.58;100.00;97032.84;5053561;28;20508;-76
2023/11/06 05:11:01;;;;;;;10.73;6.10;;;;;;;10.67;100.00;97048.28;5070943;28;20454;-75
2023/11/06 05:13:27;;;;;;;15.57;7.65;;;;;;;10.72;100.00;97046.13;5073761;28;20450;-76
2023/11/06 05:15:52;;;;;;;124.32;73.60;;;;;;;10.85;100.00;97051.47;5090801;28;20356;-74
2023/11/06 05:18:18;;;;;;;11.43;5.25;;;;;;;11.14;100.00;97068.97;5067942;28;20034;-76
2023/11/06 05:20:44;;;;;;;11.02;5.55;;;;;;;11.31;100.00;97060.59;5070544;28;20427;-75
2023/11/06 05:23:10;;;;;;;24.10;11.63;;;;;;;11.36;100.00;97068.25;5070932;28;20101;-76
2023/11/06 05:25:36;;;;;;;14.15;6.82;;;;;;;11.35;100.00;97063.91;5078199;28;20032;-75
2023/11/06 05:28:03;;;;;;;17.65;9.38;;;;;;;11.36;100.00;97077.16;5070066;28;20179;-76
2023/11/06 05:30:28;;;;;;;15.93;8.07;;;;;;;11.39;100.00;97071.56;5087762;28;20038;-75
2023/11/06 05:32:55;;;;;;;21.45;9.80;;;;;;;11.20;100.00;97064.97;5073519;28;20115;-75
2023/11/06 05:35:21;;;;;;;21.48;11.35;;;;;;;11.22;100.00;97066.59;5086217;28;20060;-74
2023/11/06 05:37:46;;;;;;;12.45;6.88;;;;;;;11.29;100.00;97080.38;5074864;28;20055;-76
2023/11/06 05:40:12;;;;;;;7.30;3.28;;;;;;;11.57;100.00;97071.19;5090169;28;20027;-75
2023/11/06 05:42:39;;;;;;;13.60;3.75;;;;;;;11.89;100.00;97061.66;5089775;28;20110;-74
2023/11/06 05:45:06;;;;;;;18.23;7.57;;;;;;;12.02;100.00;97065.13;5073151;28;20546;-74
2023/11/06 05:47:32;;;;;;;17.13;7.82;;;;;;;11.98;100.00;97070.81;5061745;28;20107;-75
2023/11/06 05:49:57;;;;;;;23.05;8.88;;;;;;;12.01;100.00;97089.38;5069746;28;20071;-75
2023/11/06 05:52:24;;;;;;;44.83;26.77;;;;;;;12.03;100.00;97090.13;5088471;28;20035;-74
2023/11/06 05:54:50;;;;;;;26.42;14.10;;;;;;;11.97;100.00;97091.41;5072898;28;20445;-75
2023/11/06 05:57:15;;;;;;;16.40;7.13;;;;;;;11.93;100.00;97084.59;5069475;28;20035;-75
2023/11/06 05:59:41;;;;;;;12.85;6.07;;;;;;;12.00;100.00;97095.72;5086326;28;20020;-74
2023/11/06 06:02:08;;;;;;;15.57;7.95;;;;;;;12.00;100.00;97096.53;5069264;28;20036;-74
2023/11/06 06:04:34;;;;;;;15.90;7.45;;;;;;;12.14;100.00;97109.78;5089630;28;20035;-75
2023/11/06 06:07:00;;;;;;;30.92;15.13;;;;;;;12.63;100.00;97114.09;5071547;28;20537;-74
2023/11/06 06:09:26;;;;;;;12.07;4.13;;;;;;;13.41;100.00;97099.78;5069568;28;20029;-76
2023/11/06 06:11:51;;;;;;;15.32;3.53;;;;;;;14.36;100.00;97091.03;5069319;28;20039;-74
2023/11/06 06:14:17;;;;;;;6.57;3.20;;;;;;;15.44;100.00;97077.03;5057369;28;20028;-74
2023/11/06 06:16:44;;;;;;;17.95;10.00;;;;;;;16.62;100.00;97068.00;5072599;28;20458;-75
2023/11/06 06:19:10;;;;;;;19.25;9.02;;;;;;;17.59;100.00;97062.22;5090605;28;20040;-75
2023/11/06 06:21:36;;;;;;;8.45;3.33;;;;;;;18.61;100.00;97065.50;5072413;28;20032;-76
2023/11/06 06:24:05;;;;;;;9.32;3.25;;;;;;;19.92;100.00;97065.13;5090358;28;20052;-74
2023/11/06 06:26:30;;;;;;;11.55;2.85;;;;;;;20.85;100.00;97041.34;5072026;28;20028;-74
2023/11/06 06:28:56;;;;;;;8.38;2.72;;;;;;;21.84;100.00;97050.78;5082938;28;20123;-76
2023/11/06 06:31:21;;;;;;;3.80;1.50;;;;;;;22.50;65.23;97003.94;5080858;28;20103;-74
2023/11/06 06:33:47;;;;;;;30.15;16.92;;;;;;;22.59;78.18;97040.16;5076780;28;20036;-75
2023/11/06 06:36:13;;;;;;;12.02;3.53;;;;;;;22.73;80.77;97041.28;5085253;28;20032;-74
2023/11/06 06:38:39;;;;;;;7.20;3.72;;;;;;;22.98;76.35;97040.88;5082604;28;20025;-74
2023/11/06 06:41:05;;;;;;;10.10;4.25;;;;;;;23.15;70.85;97026.06;5052292;28;20043;-75
2023/11/06 06:43:32;;;;;;;6.32;2.80;;;;;;;23.47;68.00;97032.25;5088192;28;20024;-74
2023/11/06 06:45:58;;;;;;;11.55;5.95;;;;;;;23.99;56.41;97023.91;5076564;28;20115;-74
2023/11/06 06:48:23;;;;;;;8.48;3.15;;;;;;;24.20;56.13;97022.09;5084900;28;20104;-74
2023/11/06 06:50:49;;;;;;;29.42;17.75;;;;;;;24.90;55.12;97026.84;5074798;28;20549;-75
2023/11/06 06:53:15;;;;;;;9.90;4.15;;;;;;;25.26;52.55;97019.34;5070349;28;20020;-76
2023/11/06 06:55:41;;;;;;;13.00;8.13;;;;;;;25.62;50.98;97026.56;5080227;28;20020;-75
2023/11/06 06:58:06;;;;;;;7.32;3.38;;;;;;;26.16;49.15;97024.75;5080235;28;20081;-75
2023/11/06 07:00:32;;;;;;;14.18;8.45;;;;;;;26.64;47.34;97030.19;5078472;28;20024;-74
2023/11/06 07:02:59;;;;;;;5.72;1.92;;;;;;;26.95;46.11;97021.38;5075889;28;20033;-75
2023/11/06 07:05:26;;;;;;;11.02;6.78;;;;;;;27.10;45.31;97030.25;5081456;28;20119;-76
2023/11/06 07:07:52;;;;;;;15.38;6.47;;;;;;;27.22;43.39;97028.56;5093134;28;20015;-76
2023/11/06 07:10:17;;;;;;;11.60;5.72;;;;;;;27.27;44.55;97037.84;5064904;28;20024;-75
2023/11/06 07:12:43;;;;;;;8.60;1.35;;;;;;;27.44;43.12;97033.63;5066819;28;20066;-75
2023/11/06 07:15:10;;;;;;;7.20;1.40;;;;;;;27.17;42.85;97042.91;5083128;28;20078;-75
2023/11/06 07:17:36;;;;;;;6.68;1.40;;;;;;;27.48;41.30;97038.72;5074135;28;20024;-75
2023/11/06 07:20:03;;;;;;;5.20;1.30;;;;;;;27.65;40.75;97034.47;5081513;28;20493;-75
2023/11/06 07:22:31;;;;;;;3.58;1.20;;;;;;;28.01;39.71;97040.28;5093150;28;20085;-75
2023/11/06 07:25:06;;;;;;;5.63;1.05;;;;;;;27.97;39.49;97041.78;5072448;28;20097;-74
2023/11/06 07:27:33;;;;;;;5.82;1.55;;;;;;;27.81;39.19;97056.00;5077334;28;20032;-75
2023/11/06 07:29:59;;;;;;;4.47;1.27;;;;;;;28.16;38.99;97051.91;5090802;28;20032;-74
2023/11/06 07:32:24;;;;;;;7.03;1.55;;;;;;;28.77;38.91;97059.66;5081162;28;20024;-74
2023/11/06 07:34:50;;;;;;;7.38;1.50;;;;;;;28.89;38.77;97072.50;5082369;28;20072;-74
2023/11/06 07:37:16;;;;;;;6.70;1.00;;;;;;;29.31;37.57;97065.47;5078113;28;20428;-74
2023/11/06 07:39:43;;;;;;;5.03;1.48;;;;;;;29.67;37.52;97073.00;5083740;28;20027;-74
2023/11/06 07:42:11;;;;;;;4.15;1.45;;;;;;;29.85;35.58;97061.19;5089603;28;20032;-74
2023/11/06 07:44:38;;;;;;;3.60;1.05;;;;;;;29.18;36.79;97064.69;5092624;28;20020;-74
2023/11/06 07:47:05;;;;;;;4.18;1.50;;;;;;;28.62;37.14;97065.44;5092837;28;20477;-74
2023/11/06 07:49:31;;;;;;;10.30;1.83;;;;;;;28.49;36.77;97069.09;5081755;28;20027;-73
2023/11/06 07:51:57;;;;;;;5.13;1.30;;;;;;;28.21;37.77;97085.09;5081304;28;20024;-74
2023/11/06 07:54:24;;;;;;;3.42;1.25;;;;;;;28.42;38.17;97095.84;5076082;28;20495;-76
2023/11/06 07:56:50;;;;;;;9.07;3.35;;;;;;;28.66;37.29;97082.41;5089740;28;20024;-75
2023/11/06 07:59:16;;;;;;;13.52;7.32;;;;;;;28.65;37.79;97091.72;5091221;28;20031;-75
2023/11/06 08:01:42;;;;;;;6.60;2.22;;;;;;;29.01;36.17;97075.41;5056826;28;20411;-75
2023/11/06 08:04:07;;;;;;;7.07;2.13;;;;;;;29.19;36.19;97089.28;5070751;28;20506;-75
2023/11/06 08:06:33;;;;;;;6.43;1.70;;;;;;;29.41;36.96;97092.53;5083865;28;20028;-75
2023/11/06 08:08:59;;;;;;;6.22;1.40;;;;;;;29.95;35.67;97078.91;5092572;28;20184;-76
2023/11/06 08:11:25;;;;;;;8.25;1.10;;;;;;;29.97;34.42;97078.66;5085467;28;20024;-76
2023/11/06 08:13:53;;;;;;;6.72;2.25;;;;;;;29.70;34.78;97079.97;5092443;28;20038;-75
2023/11/06 08:16:19;;;;;;;14.63;5.53;;;;;;;29.23;35.96;97079.47;5075183;28;20033;-75
2023/11/06 08:18:44;;;;;;;10.52;5.07;;;;;;;29.72;35.32;97094.41;5084843;28;20020;-75
2023/11/06 08:21:10;;;;;;;3.70;1.58;;;;;;;30.29;34.68;97073.84;5090801;28;20031;-76
2023/11/06 08:23:36;;;;;;;4.50;1.25;;;;;;;30.56;33.58;97073.31;5075188;28;20031;-76
2023/11/06 08:26:04;;;;;;;3.58;1.67;;;;;;;30.72;33.10;97084.81;5078512;28;20387;-76
2023/11/06 08:28:30;;;;;;;5.80;1.40;;;;;;;31.19;32.94;97086.72;5080485;28;20037;-75
2023/11/06 08:30:55;;;;;;;6.75;1.77;;;;;;;32.03;32.83;97093.81;5084632;28;20392;-76
2023/11/06 08:33:21;;;;;;;7.03;1.65;;;;;;;32.26;31.66;97093.81;5084169;28;20392;-77
2023/11/06 08:35:47;;;;;;;6.45;1.90;;;;;;;32.19;31.64;97084.78;5085523;28;20089;-76
2023/11/06 08:38:13;;;;;;;5.97;1.65;;;;;;;32.31;32.22;97098.63;5078475;28;20031;-77
2023/11/06 08:40:38;;;;;;;9.90;2.65;;;;;;;32.46;31.65;97097.03;5078781;28;20445;-76
2023/11/06 08:43:04;;;;;;;4.53;1.50;;;;;;;32.67;30.63;97095.56;5080668;28;20028;-75
2023/11/06 08:45:29;;;;;;;7.45;1.45;;;;;;;31.62;32.47;97103.06;5087103;28;20412;-75
2023/11/06 08:47:55;;;;;;;5.47;1.40;;;;;;;32.03;30.89;97099.34;5082066;28;20024;-77
2023/11/06 08:50:21;;;;;;;5.40;1.27;;;;;;;31.49;31.06;97103.28;5060704;28;20032;-76
2023/11/06 08:52:47;;;;;;;6.05;1.35;;;;;;;31.15;32.50;97108.44;5086884;28;20039;-75
2023/11/06 08:55:13;;;;;;;7.03;2.72;;;;;;;30.94;31.93;97094.28;5073079;28;20017;-76
2023/11/06 08:57:39;;;;;;;4.15;1.27;;;;;;;31.15;31.04;97085.47;5076877;28;20048;-76
2023/11/06 09:00:08;;;;;;;4.63;1.55;;;;;;;30.96;32.31;97109.56;5083135;28;20376;-76
2023/11/06 09:02:34;;;;;;;6.68;1.60;;;;;;;31.34;31.41;97089.88;5066162;28;20028;-76
2023/11/06 09:05:00;;;;;;;4.93;1.48;;;;;;;30.85;31.92;97101.22;5057170;28;20059;-76
2023/11/06 09:07:27;;;;;;;4.57;1.50;;;;;;;31.08;31.12;97104.94;5087319;28;20483;-76
2023/11/06 09:09:53;;;;;;;7.22;1.65;;;;;;;30.86;31.83;97105.63;5080073;28;20523;-76
2023/11/06 09:12:18;;;;;;;9.43;1.67;;;;;;;31.25;31.38;97101.50;5090083;28;20115;-76
2023/11/06 09:14:44;;;;;;;3.28;1.30;;;;;;;31.68;31.24;97104.88;5089781;28;20105;-76
2023/11/06 09:17:09;;;;;;;7.05;1.10;;;;;;;31.95;29.92;97100.56;5082900;28;20035;-76
2023/11/06 09:19:35;;;;;;;5.53;1.70;;;;;;;31.67;31.22;97114.25;5082635;28;20127;-76
2023/11/06 09:22:00;;;;;;;4.93;1.50;;;;;;;32.42;30.98;97117.16;5080127;28;20039;-76
2023/11/06 09:24:29;;;;;;;7.13;1.65;;;;;;;32.85;29.92;97109.25;5080752;28;20048;-75
2023/11/06 09:26:56;;;;;;;3.53;1.50;;;;;;;31.85;30.68;97121.59;5081614;28;20020;-76
2023/11/06 09:29:21;;;;;;;4.57;1.58;;;;;;;31.93;31.04;97115.72;5079165;28;20028;-76
2023/11/06 09:31:47;;;;;;;4.95;1.40;;;;;;;32.41;29.84;97116.31;5073553;28;20614;-75
2023/11/06 09:34:13;;;;;;;6.03;1.52;;;;;;;31.99;30.88;97117.53;5065739;28;20027;-75
2023/11/06 09:36:38;;;;;;;3.95;1.45;;;;;;;32.09;29.91;97115.84;5083855;28;20099;-76
2023/11/06 09:39:06;;;;;;;6.25;1.60;;;;;;;31.84;30.21;97100.56;5081166;28;20034;-76
2023/11/06 09:41:32;;;;;;;3.97;1.58;;;;;;;31.82;30.76;97113.75;5078026;28;20105;-75
2023/11/06 09:43:59;;;;;;;5.88;1.50;;;;;;;32.20;30.08;97108.63;5073858;28;20111;-76
2023/11/06 09:46:26;;;;;;;6.00;1.70;;;;;;;31.72;31.00;97108.81;5079041;28;20027;-76
2023/11/06 09:48:54;;;;;;;5.13;1.40;;;;;;;30.77;30.94;97104.28;5077127;28;20020;-75
2023/11/06 09:51:23;;;;;;;5.38;1.38;;;;;;;30.84;30.54;97099.50;5053809;28;20024;-76
2023/11/06 09:53:50;;;;;;;4.70;1.20;;;;;;;30.60;30.62;97104.94;5064326;28;20562;-75
2023/11/06 09:56:17;;;;;;;6.13;1.42;;;;;;;30.89;31.08;97102.41;5090175;28;20028;-77
2023/11/06 09:58:43;;;;;;;8.15;1.42;;;;;;;31.32;30.59;97108.59;5090339;28;20024;-75
2023/11/06 10:01:09;;;;;;;8.35;1.60;;;;;;;32.32;30.21;97112.22;5091537;28;20028;-76
2023/11/06 10:03:36;;;;;;;3.63;1.30;;;;;;;32.33;29.73;97102.84;5090196;28;20505;-76
2023/11/06 10:06:02;;;;;;;4.15;1.13;;;;;;;32.55;29.20;97103.88;5080301;28;20480;-77
2023/11/06 10:08:30;;;;;;;5.45;1.40;;;;;;;32.74;29.52;97108.19;5067612;28;20024;-77
2023/11/06 10:11:00;;;;;;;5.55;1.05;;;;;;;33.66;29.11;97103.31;5089970;28;20099;-77
2023/11/06 10:13:26;;;;;;;4.65;1.30;;;;;;;33.93;28.13;97097.09;5090144;28;20019;-75
2023/11/06 10:15:52;;;;;;;5.38;1.67;;;;;;;34.04;27.63;97093.38;5089894;28;20073;-76
2023/11/06 10:18:19;;;;;;;4.50;1.30;;;;;;;32.37;28.80;97073.56;5072895;28;20024;-76
2023/11/06 10:20:49;;;;;;;6.38;1.63;;;;;;;32.82;29.34;97100.59;5074741;28;20127;-75
2023/11/06 10:23:29;;;;;;;4.13;1.23;;;;;;;32.75;28.32;97092.41;5076441;28;20472;-75
2023/11/06 10:25:59;;;;;;;2.63;1.20;;;;;;;31.98;28.96;97085.38;5069469;28;20115;-76
2023/11/06 10:28:24;;;;;;;5.43;1.63;;;;;;;31.26;30.36;97079.13;5076054;28;20062;-75
2023/11/06 10:30:53;;;;;;;6.18;2.13;;;;;;;30.45;31.43;97103.63;5081540;28;20060;-76
2023/11/06 10:33:20;;;;;;;3.38;1.77;;;;;;;29.33;31.63;97099.16;5082751;28;20048;-75
2023/11/06 10:35:46;;;;;;;4.63;1.63;;;;;;;28.67;32.69;97097.88;5064589;28;20495;-75
2023/11/06 10:38:34;;;;;;;7.65;1.90;;;;;;;29.18;33.13;97093.09;5065794;28;20062;-76
2023/11/06 10:41:13;;;;;;;8.50;1.70;;;;;;;29.62;32.15;97100.41;5074060;28;20478;-75
2023/11/06 10:43:41;;;;;;;14.05;2.90;;;;;;;29.56;32.34;97101.31;5082797;28;20031;-76
2023/11/06 10:46:09;;;;;;;18.45;4.03;;;;;;;29.40;33.56;97101.88;5069397;28;20043;-74
2023/11/06 10:48:39;;;;;;;14.65;4.63;;;;;;;28.78;32.25;97095.25;5056965;28;20059;-75
2023/11/06 10:51:06;;;;;;;7.68;2.38;;;;;;;28.49;32.42;97096.63;5070792;28;20518;-75
2023/11/06 10:53:34;;;;;;;14.45;4.57;;;;;;;28.05;34.88;97101.25;5089725;28;20016;-75
2023/11/06 10:56:03;;;;;;;17.15;6.63;;;;;;;27.60;36.25;97112.06;5072500;28;20055;-76
2023/11/06 10:58:30;;;;;;;8.65;2.30;;;;;;;27.08;35.22;97103.75;5089475;28;20107;-76
2023/11/06 11:00:57;;;;;;;12.88;3.22;;;;;;;26.82;35.36;97107.31;5081022;28;20032;-75
2023/11/06 11:03:23;;;;;;;10.95;2.65;;;;;;;26.91;36.74;97100.56;5074984;28;20474;-76
2023/11/06 11:05:53;;;;;;;16.55;3.22;;;;;;;27.22;36.71;97108.22;5077651;28;20028;-75
2023/11/06 11:08:21;;;;;;;9.98;2.70;;;;;;;27.63;36.25;97108.03;5074600;28;20391;-76
2023/11/06 11:10:46;;;;;;;6.45;1.60;;;;;;;27.85;34.27;97098.50;5052482;28;20505;-75
2023/11/06 11:13:15;;;;;;;6.10;1.40;;;;;;;27.81;35.38;97100.00;5073768;28;20154;-76
2023/11/06 11:15:42;;;;;;;10.60;1.60;;;;;;;29.45;33.09;97089.09;5088768;28;20042;-75
2023/11/06 11:18:13;;;;;;;6.20;1.52;;;;;;;31.44;31.03;97087.34;5087656;28;20396;-75
2023/11/06 11:20:53;;;;;;;6.87;1.80;;;;;;;31.79;30.16;97081.03;5082125;28;20048;-75
2023/11/06 11:23:37;;;;;;;9.25;1.70;;;;;;;32.65;29.71;97089.41;5059520;28;20293;-75